createdAt,value
2022-07-31T00:01:31.976Z,39.56
2022-07-31T00:04:06.195Z,40.15
2022-07-31T00:06:39.147Z,39.62
2022-07-31T00:09:48.827Z,39.86
2022-07-31T00:12:05.288Z,39.98
2022-07-31T00:14:38.036Z,40.50
2022-07-31T00:17:10.909Z,40.16
2022-07-31T00:19:44.907Z,40.09
2022-07-31T00:22:17.690Z,40.90
2022-07-31T00:24:50.540Z,40.96
2022-07-31T00:27:23.883Z,40.44
2022-07-31T00:29:56.665Z,41.19
2022-07-31T00:32:29.447Z,40.95
2022-07-31T00:35:03.377Z,40.92
2022-07-31T00:37:37.309Z,40.55
2022-07-31T00:40:13.215Z,40.66
2022-07-31T00:42:46.220Z,41.47
2022-07-31T00:45:18.871Z,41.58
2022-07-31T00:47:57.757Z,41.12
2022-07-31T00:50:32.106Z,41.09
2022-07-31T00:53:05.431Z,40.83
2022-07-31T00:55:51.753Z,41.46
2022-07-31T00:58:25.054Z,41.39
2022-07-31T01:00:57.985Z,42.34
2022-07-31T01:03:31.920Z,42.35
2022-07-31T01:06:07.679Z,41.64
2022-07-31T01:08:40.849Z,42.39
2022-07-31T01:11:18.285Z,42.16
2022-07-31T01:13:56.447Z,41.67
2022-07-31T01:16:40.884Z,42.35
2022-07-31T01:19:23.307Z,41.79
2022-07-31T01:22:34.494Z,41.79
2022-07-31T01:25:12.866Z,42.14
2022-07-31T01:28:04.246Z,42.12
2022-07-31T01:30:46.559Z,42.21
2022-07-31T01:33:23.849Z,42.27
2022-07-31T01:36:03.780Z,42.28
2022-07-31T01:38:45.247Z,42.62
2022-07-31T01:41:22.399Z,42.44
2022-07-31T01:43:57.997Z,42.38
2022-07-31T01:46:41.426Z,42.11
2022-07-31T01:49:19.173Z,42.34
2022-07-31T01:51:53.870Z,41.93
2022-07-31T01:54:30.327Z,42.62
2022-07-31T01:57:07.012Z,42.32
2022-07-31T01:59:46.703Z,42.64
2022-07-31T02:02:28.056Z,42.13
2022-07-31T02:05:04.124Z,42.05
2022-07-31T02:07:40.223Z,42.08
2022-07-31T02:10:16.524Z,42.12
2022-07-31T02:12:51.856Z,42.51
2022-07-31T02:15:25.757Z,43.27
2022-07-31T02:18:09.234Z,42.81
2022-07-31T02:20:43.284Z,42.77
2022-07-31T02:23:16.222Z,42.25
2022-07-31T02:25:49.611Z,42.67
2022-07-31T02:28:23.975Z,43.21
2022-07-31T02:31:01.295Z,43.01
2022-07-31T02:33:39.014Z,42.95
2022-07-31T02:36:13.895Z,42.48
2022-07-31T02:38:47.293Z,42.62
2022-07-31T02:41:22.218Z,42.65
2022-07-31T02:43:55.888Z,42.34
2022-07-31T02:46:30.648Z,43.05
2022-07-31T02:49:05.918Z,43.53
2022-07-31T02:51:42.680Z,42.79
2022-07-31T02:54:18.278Z,43.15
2022-07-31T02:56:51.774Z,43.16
2022-07-31T02:59:25.121Z,42.61
2022-07-31T03:02:05.701Z,43.52
2022-07-31T03:04:46.100Z,43.21
2022-07-31T03:07:18.857Z,42.89
2022-07-31T03:09:52.460Z,42.63
2022-07-31T03:13:04.343Z,42.90
2022-07-31T03:15:37.662Z,43.01
2022-07-31T03:18:14.770Z,42.95
2022-07-31T03:20:51.860Z,43.65
2022-07-31T03:23:27.216Z,43.22
2022-07-31T03:26:07.770Z,43.52
2022-07-31T03:28:40.814Z,43.48
2022-07-31T03:31:13.762Z,43.65
2022-07-31T03:33:46.664Z,43.16
2022-07-31T03:36:22.414Z,42.94
2022-07-31T03:38:55.726Z,43.51
2022-07-31T03:41:39.083Z,43.12
2022-07-31T03:44:12.522Z,43.08
2022-07-31T03:46:45.355Z,42.94
2022-07-31T03:49:18.498Z,43.27
2022-07-31T03:51:53.733Z,43.38
2022-07-31T03:54:26.662Z,43.46
2022-07-31T03:57:20.346Z,43.59
2022-07-31T03:59:57.650Z,43.50
2022-07-31T04:02:31.866Z,43.62
2022-07-31T04:05:11.154Z,43.61
2022-07-31T04:07:47.346Z,43.95
2022-07-31T04:10:20.236Z,43.44
2022-07-31T04:12:53.000Z,43.35
2022-07-31T04:15:26.088Z,43.65
2022-07-31T04:17:59.085Z,44.04
2022-07-31T04:20:40.541Z,43.99
2022-07-31T04:23:14.641Z,44.26
2022-07-31T04:26:19.826Z,43.97
2022-07-31T04:29:07.993Z,44.18
2022-07-31T04:31:42.228Z,44.11
2022-07-31T04:34:18.482Z,44.35
2022-07-31T04:36:51.252Z,44.19
2022-07-31T04:39:25.570Z,44.38
2022-07-31T04:41:58.492Z,44.41
2022-07-31T04:44:32.157Z,44.42
2022-07-31T04:47:06.790Z,44.31
2022-07-31T04:49:42.757Z,44.45
2022-07-31T04:52:18.120Z,44.65
2022-07-31T04:54:54.263Z,44.72
2022-07-31T04:57:27.066Z,44.46
2022-07-31T05:00:01.400Z,46.29
2022-07-31T05:02:40.365Z,44.43
2022-07-31T05:05:14.200Z,44.89
2022-07-31T05:07:48.680Z,44.59
2022-07-31T05:10:46.053Z,44.94
2022-07-31T05:13:19.108Z,44.71
2022-07-31T05:15:52.503Z,45.31
2022-07-31T05:18:25.333Z,45.23
2022-07-31T05:21:17.747Z,45.26
2022-07-31T05:24:01.618Z,45.23
2022-07-31T05:26:45.731Z,45.18
2022-07-31T05:29:18.529Z,45.29
2022-07-31T05:32:00.333Z,45.22
2022-07-31T05:34:34.141Z,45.72
2022-07-31T05:37:07.032Z,44.95
2022-07-31T05:39:43.048Z,44.95
2022-07-31T05:42:35.571Z,44.92
2022-07-31T05:45:37.568Z,45.06
2022-07-31T05:48:10.327Z,44.80
2022-07-31T05:50:43.893Z,45.26
2022-07-31T05:53:17.437Z,44.85
2022-07-31T05:56:22.921Z,44.95
2022-07-31T05:58:58.981Z,45.05
2022-07-31T06:01:31.845Z,45.22
2022-07-31T06:04:04.591Z,45.31
2022-07-31T06:06:46.440Z,45.37
2022-07-31T06:09:20.401Z,45.42
2022-07-31T06:11:53.168Z,45.19
2022-07-31T06:14:27.450Z,45.46
2022-07-31T06:17:16.117Z,45.52
2022-07-31T06:19:48.890Z,45.18
2022-07-31T06:22:21.561Z,45.40
2022-07-31T06:24:54.270Z,45.72
2022-07-31T06:27:33.830Z,45.30
2022-07-31T06:30:11.386Z,45.44
2022-07-31T06:32:44.219Z,45.51
2022-07-31T06:35:17.035Z,45.19
2022-07-31T06:38:08.327Z,45.40
2022-07-31T06:41:01.008Z,45.31
2022-07-31T06:43:42.839Z,45.39
2022-07-31T06:46:49.060Z,45.34
2022-07-31T06:49:40.936Z,45.33
2022-07-31T06:52:13.618Z,45.48
2022-07-31T06:54:46.909Z,45.20
2022-07-31T06:57:19.683Z,45.53
2022-07-31T06:59:56.085Z,45.91
2022-07-31T07:02:30.749Z,51.67
2022-07-31T07:05:06.635Z,52.45
2022-07-31T07:07:40.830Z,54.67
2022-07-31T07:10:14.951Z,54.99
2022-07-31T07:13:07.260Z,56.41
2022-07-31T07:15:42.205Z,55.67
2022-07-31T07:18:17.422Z,56.72
2022-07-31T07:20:55.057Z,55.18
2022-07-31T07:23:27.849Z,57.77
2022-07-31T07:26:29.979Z,56.66
2022-07-31T07:29:02.770Z,57.94
2022-07-31T07:31:36.426Z,58.72
2022-07-31T07:34:10.608Z,58.97
2022-07-31T07:36:43.813Z,58.30
2022-07-31T07:39:28.052Z,60.28
2022-07-31T07:42:02.387Z,60.17
2022-07-31T07:44:35.347Z,58.78
2022-07-31T07:47:08.561Z,58.91
2022-07-31T07:49:42.755Z,60.11
2022-07-31T07:52:32.975Z,59.67
2022-07-31T07:55:28.405Z,60.30
2022-07-31T07:58:28.817Z,60.07
2022-07-31T08:01:40.200Z,60.14
2022-07-31T08:04:31.727Z,59.44
2022-07-31T08:07:06.213Z,59.68
2022-07-31T08:09:43.210Z,61.39
2022-07-31T08:12:35.515Z,57.73
2022-07-31T08:15:11.605Z,59.01
2022-07-31T08:18:18.584Z,58.43
2022-07-31T08:20:51.393Z,58.89
2022-07-31T08:23:25.651Z,59.27
2022-07-31T08:25:58.460Z,58.05
2022-07-31T08:28:32.137Z,58.96
2022-07-31T08:31:05.144Z,58.89
2022-07-31T08:33:46.121Z,58.36
2022-07-31T08:36:18.897Z,58.35
2022-07-31T08:38:52.990Z,59.85
2022-07-31T08:41:51.690Z,58.50
2022-07-31T08:44:27.164Z,59.21
2022-07-31T08:47:07.510Z,60.25
2022-07-31T08:49:42.292Z,58.38
2022-07-31T08:52:18.907Z,59.37
2022-07-31T08:55:10.488Z,57.45
2022-07-31T08:57:57.653Z,57.42
2022-07-31T09:00:30.528Z,57.69
2022-07-31T09:03:03.620Z,56.75
2022-07-31T09:05:51.702Z,57.43
2022-07-31T09:08:25.683Z,56.29
2022-07-31T09:11:09.176Z,56.17
2022-07-31T09:14:02.772Z,55.94
2022-07-31T09:16:52.523Z,56.00
2022-07-31T09:19:53.475Z,55.62
2022-07-31T09:22:34.371Z,56.68
2022-07-31T09:25:13.133Z,57.33
2022-07-31T09:27:48.529Z,57.47
2022-07-31T09:30:21.940Z,57.04
2022-07-31T09:33:17.194Z,56.73
2022-07-31T09:36:16.047Z,57.28
2022-07-31T09:38:57.515Z,56.77
2022-07-31T09:42:16.463Z,56.62
2022-07-31T09:45:02.622Z,57.05
2022-07-31T09:47:37.748Z,56.24
2022-07-31T09:50:12.377Z,56.75
2022-07-31T09:52:45.377Z,57.03
2022-07-31T09:55:18.757Z,56.99
2022-07-31T09:57:54.025Z,56.97
2022-07-31T10:00:29.105Z,56.61
2022-07-31T10:03:03.349Z,57.30
2022-07-31T10:05:38.659Z,56.17
2022-07-31T10:08:14.160Z,56.95
2022-07-31T10:11:16.556Z,56.76
2022-07-31T10:14:01.778Z,57.16
2022-07-31T10:16:38.944Z,56.84
2022-07-31T10:19:47.163Z,57.19
2022-07-31T10:22:45.592Z,57.04
2022-07-31T10:25:25.314Z,57.53
2022-07-31T10:27:59.123Z,56.74
2022-07-31T10:30:32.827Z,57.27
2022-07-31T10:33:27.954Z,56.32
2022-07-31T10:36:23.614Z,56.44
2022-07-31T10:39:32.864Z,55.88
2022-07-31T10:42:20.893Z,56.47
2022-07-31T10:44:59.729Z,56.58
2022-07-31T10:47:54.634Z,56.01
2022-07-31T10:51:05.794Z,55.19
2022-07-31T10:54:00.485Z,56.10
2022-07-31T10:56:52.582Z,55.76
2022-07-31T10:59:47.605Z,54.88
2022-07-31T11:02:55.763Z,54.52
2022-07-31T11:06:02.663Z,54.65
2022-07-31T11:08:55.995Z,54.25
2022-07-31T11:11:56.614Z,54.02
2022-07-31T11:14:46.107Z,54.00
2022-07-31T11:18:22.697Z,54.62
2022-07-31T11:20:32.695Z,53.81
2022-07-31T11:23:08.168Z,54.30
2022-07-31T11:25:42.949Z,53.11
2022-07-31T11:28:21.431Z,53.19
2022-07-31T11:30:56.072Z,53.08
2022-07-31T11:33:41.516Z,53.68
2022-07-31T11:36:18.044Z,52.89
2022-07-31T11:38:52.718Z,52.92
2022-07-31T11:41:40.435Z,53.67
2022-07-31T11:44:21.877Z,52.81
2022-07-31T11:46:55.767Z,53.17
2022-07-31T11:49:47.697Z,53.07
2022-07-31T11:52:30.682Z,52.96
2022-07-31T11:55:11.551Z,52.81
2022-07-31T11:57:51.011Z,54.62
2022-07-31T12:00:29.735Z,56.16
2022-07-31T12:03:03.120Z,56.26
2022-07-31T12:05:44.217Z,56.34
2022-07-31T12:08:18.084Z,55.69
2022-07-31T12:10:53.430Z,54.87
2022-07-31T12:13:31.746Z,54.70
2022-07-31T12:16:06.536Z,53.97
2022-07-31T12:18:49.173Z,53.98
2022-07-31T12:21:33.185Z,53.70
2022-07-31T12:24:12.355Z,55.13
2022-07-31T12:26:52.317Z,54.98
2022-07-31T12:29:35.793Z,54.37
2022-07-31T12:32:12.631Z,54.36
2022-07-31T12:34:46.902Z,54.21
2022-07-31T12:37:22.108Z,55.60
2022-07-31T12:40:00.155Z,55.49
2022-07-31T12:42:41.183Z,57.30
2022-07-31T12:45:20.324Z,56.16
2022-07-31T12:47:55.874Z,56.97
2022-07-31T12:50:30.870Z,57.49
2022-07-31T12:53:06.051Z,57.29
2022-07-31T12:55:38.869Z,57.41
2022-07-31T12:58:11.607Z,58.69
2022-07-31T13:00:45.822Z,57.10
2022-07-31T13:03:19.149Z,57.89
2022-07-31T13:05:52.309Z,57.61
2022-07-31T13:08:26.435Z,57.21
2022-07-31T13:10:59.979Z,57.66
2022-07-31T13:13:33.134Z,59.48
2022-07-31T13:16:07.645Z,58.19
2022-07-31T13:18:40.360Z,58.35
2022-07-31T13:21:14.422Z,58.01
2022-07-31T13:23:47.164Z,58.83
2022-07-31T13:26:20.791Z,59.04
2022-07-31T13:28:55.373Z,57.41
2022-07-31T13:31:31.268Z,57.44
2022-07-31T13:34:04.212Z,58.76
2022-07-31T13:36:39.172Z,59.17
2022-07-31T13:39:13.773Z,60.21
2022-07-31T13:41:46.502Z,60.04
2022-07-31T13:44:19.467Z,58.91
2022-07-31T13:46:54.332Z,60.32
2022-07-31T13:49:32.061Z,59.56
2022-07-31T13:52:05.803Z,60.85
2022-07-31T13:54:41.221Z,61.11
2022-07-31T13:57:14.904Z,61.15
2022-07-31T13:59:50.233Z,61.87
2022-07-31T14:02:24.532Z,62.54
2022-07-31T14:04:57.311Z,61.96
2022-07-31T14:07:45.727Z,61.71
2022-07-31T14:10:23.262Z,61.16
2022-07-31T14:12:56.179Z,61.57
2022-07-31T14:15:30.366Z,61.58
2022-07-31T14:18:08.122Z,62.16
2022-07-31T14:20:41.578Z,61.94
2022-07-31T14:23:14.304Z,62.16
2022-07-31T14:25:47.327Z,62.00
2022-07-31T14:28:20.088Z,61.99
2022-07-31T14:30:52.820Z,62.00
2022-07-31T14:33:28.621Z,61.31
2022-07-31T14:36:01.372Z,60.91
2022-07-31T14:38:34.273Z,60.37
2022-07-31T14:41:07.503Z,60.52
2022-07-31T14:43:40.374Z,61.22
2022-07-31T14:46:13.065Z,61.29
2022-07-31T14:48:47.272Z,61.18
2022-07-31T14:51:20.663Z,59.51
2022-07-31T14:53:53.418Z,59.56
2022-07-31T14:56:51.407Z,59.49
2022-07-31T14:59:19.597Z,60.23
2022-07-31T15:01:52.580Z,59.60
2022-07-31T15:04:26.578Z,59.76
2022-07-31T15:07:19.200Z,59.52
2022-07-31T15:09:52.617Z,58.80
2022-07-31T15:12:25.628Z,59.64
2022-07-31T15:14:58.505Z,59.31
2022-07-31T15:17:31.357Z,59.41
2022-07-31T15:20:05.898Z,59.71
2022-07-31T15:22:38.590Z,60.09
2022-07-31T15:25:11.607Z,59.25
2022-07-31T15:27:44.336Z,58.89
2022-07-31T15:30:18.346Z,58.98
2022-07-31T15:32:53.261Z,60.49
2022-07-31T15:35:28.401Z,60.71
2022-07-31T15:38:02.206Z,60.36
2022-07-31T15:40:34.982Z,60.85
2022-07-31T15:43:07.715Z,60.49
2022-07-31T15:45:40.472Z,60.13
2022-07-31T15:48:13.325Z,59.72
2022-07-31T15:50:47.666Z,59.84
2022-07-31T15:53:20.340Z,61.09
2022-07-31T15:55:53.150Z,59.99
2022-07-31T15:58:25.747Z,60.13
2022-07-31T16:01:01.553Z,60.37
2022-07-31T16:03:50.899Z,60.48
2022-07-31T16:06:28.078Z,59.98
2022-07-31T16:09:05.050Z,60.03
2022-07-31T16:12:04.008Z,60.33
2022-07-31T16:14:30.303Z,60.07
2022-07-31T16:17:03.282Z,60.20
2022-07-31T16:19:36.126Z,60.36
2022-07-31T16:22:10.717Z,61.42
2022-07-31T16:24:43.533Z,60.82
2022-07-31T16:27:16.123Z,61.15
2022-07-31T16:29:59.404Z,60.68
2022-07-31T16:32:35.054Z,61.02
2022-07-31T16:35:08.961Z,60.40
2022-07-31T16:37:52.197Z,61.09
2022-07-31T16:40:30.942Z,61.01
2022-07-31T16:43:49.594Z,61.36
2022-07-31T16:45:58.436Z,60.83
2022-07-31T16:48:31.232Z,60.80
2022-07-31T16:51:04.270Z,61.38
2022-07-31T16:54:13.624Z,61.86
2022-07-31T16:56:31.369Z,61.66
2022-07-31T16:59:04.940Z,61.58
2022-07-31T17:02:00.141Z,60.79
2022-07-31T17:04:30.673Z,61.30
2022-07-31T17:07:03.744Z,60.85
2022-07-31T17:09:38.202Z,61.30
2022-07-31T17:12:11.687Z,62.98
2022-07-31T17:14:44.815Z,62.27
2022-07-31T17:17:18.905Z,62.95
2022-07-31T17:19:55.250Z,63.71
2022-07-31T17:22:28.101Z,63.57
2022-07-31T17:25:05.432Z,62.91
2022-07-31T17:27:38.361Z,62.94
2022-07-31T17:30:11.314Z,62.88
2022-07-31T17:32:44.059Z,63.22
2022-07-31T17:35:16.863Z,62.82
2022-07-31T17:37:49.729Z,62.73
2022-07-31T17:40:42.460Z,61.85
2022-07-31T17:43:16.042Z,61.38
2022-07-31T17:46:06.269Z,61.31
2022-07-31T17:48:42.591Z,60.95
2022-07-31T17:51:15.294Z,61.31
2022-07-31T17:53:55.084Z,61.86
2022-07-31T17:56:33.789Z,60.97
2022-07-31T17:59:06.984Z,61.59
2022-07-31T18:01:39.810Z,61.00
2022-07-31T18:04:12.498Z,62.12
2022-07-31T18:06:54.441Z,60.84
2022-07-31T18:09:28.722Z,60.25
2022-07-31T18:12:03.787Z,61.46
2022-07-31T18:14:37.060Z,60.34
2022-07-31T18:17:09.804Z,60.54
2022-07-31T18:19:42.609Z,61.66
2022-07-31T18:22:15.379Z,61.09
2022-07-31T18:24:48.102Z,61.13
2022-07-31T18:27:22.049Z,60.95
2022-07-31T18:29:56.186Z,61.52
2022-07-31T18:32:30.960Z,61.11
2022-07-31T18:35:04.823Z,62.28
2022-07-31T18:37:38.478Z,61.92
2022-07-31T18:40:11.893Z,60.71
2022-07-31T18:42:46.274Z,61.75
2022-07-31T18:45:19.019Z,61.87
2022-07-31T18:47:51.863Z,61.56
2022-07-31T18:51:00.948Z,62.20
2022-07-31T18:53:17.517Z,62.02
2022-07-31T18:55:52.623Z,62.99
2022-07-31T18:58:27.578Z,63.45
2022-07-31T19:01:00.266Z,63.96
2022-07-31T19:03:32.986Z,65.50
2022-07-31T19:06:05.902Z,64.60
2022-07-31T19:08:38.729Z,64.51
2022-07-31T19:11:12.204Z,65.79
2022-07-31T19:13:46.736Z,65.57
2022-07-31T19:16:19.508Z,65.61
2022-07-31T19:18:53.735Z,65.22
2022-07-31T19:21:41.951Z,64.98
2022-07-31T19:24:15.431Z,64.51
2022-07-31T19:26:48.162Z,64.56
2022-07-31T19:29:23.345Z,65.02
2022-07-31T19:31:59.446Z,64.64
2022-07-31T19:34:32.479Z,65.39
2022-07-31T19:37:12.408Z,63.99
2022-07-31T19:39:45.644Z,64.31
2022-07-31T19:42:18.496Z,65.15
2022-07-31T19:44:52.665Z,65.23
2022-07-31T19:47:25.561Z,64.49
2022-07-31T19:49:58.385Z,65.60
2022-07-31T19:52:31.154Z,64.27
2022-07-31T19:55:04.275Z,63.94
2022-07-31T19:57:37.712Z,63.36
2022-07-31T20:00:13.627Z,63.12
2022-07-31T20:02:47.314Z,62.92
2022-07-31T20:05:20.143Z,62.22
2022-07-31T20:07:53.014Z,62.79
2022-07-31T20:10:25.823Z,62.47
2022-07-31T20:12:58.670Z,62.31
2022-07-31T20:15:51.315Z,62.24
2022-07-31T20:18:28.781Z,61.97
2022-07-31T20:21:03.767Z,61.99
2022-07-31T20:23:38.358Z,61.79
2022-07-31T20:26:13.790Z,61.83
2022-07-31T20:28:46.762Z,61.76
2022-07-31T20:31:22.079Z,61.21
2022-07-31T20:33:56.750Z,61.47
2022-07-31T20:36:30.872Z,61.67
2022-07-31T20:39:03.627Z,61.94
2022-07-31T20:41:36.793Z,61.45
2022-07-31T20:44:09.582Z,61.28
2022-07-31T20:46:44.556Z,61.50
2022-07-31T20:49:19.745Z,61.28
2022-07-31T20:52:09.022Z,61.13
2022-07-31T20:54:42.084Z,61.24
2022-07-31T20:57:15.647Z,61.22
2022-07-31T20:59:48.298Z,61.15
2022-07-31T21:02:22.470Z,61.05
2022-07-31T21:04:55.220Z,61.00
2022-07-31T21:07:28.774Z,60.90
2022-07-31T21:10:02.741Z,61.21
2022-07-31T21:12:37.614Z,61.37
2022-07-31T21:15:28.531Z,60.57
2022-07-31T21:18:08.273Z,60.78
2022-07-31T21:20:50.861Z,60.38
2022-07-31T21:23:27.031Z,60.21
2022-07-31T21:26:00.133Z,60.34
2022-07-31T21:28:33.380Z,60.31
2022-07-31T21:31:06.745Z,60.29
2022-07-31T21:33:41.353Z,60.20
2022-07-31T21:36:15.308Z,60.13
2022-07-31T21:38:48.357Z,60.35
2022-07-31T21:41:22.979Z,59.72
2022-07-31T21:43:58.908Z,59.74
2022-07-31T21:46:39.435Z,59.73
2022-07-31T21:49:20.382Z,59.79
2022-07-31T21:51:53.747Z,60.07
2022-07-31T21:54:26.486Z,59.60
2022-07-31T21:56:59.234Z,59.49
2022-07-31T21:59:31.985Z,59.45
2022-07-31T22:02:05.050Z,59.91
2022-07-31T22:04:59.778Z,59.34
2022-07-31T22:07:41.487Z,59.25
2022-07-31T22:10:16.353Z,59.18
2022-07-31T22:12:49.736Z,59.46
2022-07-31T22:15:22.739Z,59.16
2022-07-31T22:17:55.537Z,58.99
2022-07-31T22:20:30.291Z,59.00
2022-07-31T22:23:03.463Z,59.21
2022-07-31T22:25:36.912Z,59.53
2022-07-31T22:28:13.411Z,58.81
2022-07-31T22:30:46.828Z,58.97
2022-07-31T22:33:20.235Z,59.13
2022-07-31T22:35:58.872Z,58.95
2022-07-31T22:38:32.898Z,58.51
2022-07-31T22:41:06.071Z,59.07
2022-07-31T22:44:13.153Z,58.65
2022-07-31T22:46:33.728Z,58.71
2022-07-31T22:49:08.390Z,58.67
2022-07-31T22:51:46.527Z,58.65
2022-07-31T22:54:19.505Z,58.36
2022-07-31T22:56:52.344Z,58.57
2022-07-31T22:59:25.072Z,58.29
2022-07-31T23:01:58.583Z,58.09
2022-07-31T23:04:37.417Z,58.04
2022-07-31T23:07:11.603Z,58.14
2022-07-31T23:09:44.350Z,58.39
2022-07-31T23:12:17.143Z,58.45
2022-07-31T23:14:49.866Z,58.32
2022-07-31T23:17:23.492Z,58.27
2022-07-31T23:19:56.687Z,58.25
2022-07-31T23:22:34.174Z,58.07
2022-07-31T23:25:08.748Z,57.61
2022-07-31T23:27:41.508Z,57.32
2022-07-31T23:30:14.559Z,57.43
2022-07-31T23:32:47.357Z,57.43
2022-07-31T23:35:20.139Z,57.87
2022-07-31T23:37:54.149Z,57.55
2022-07-31T23:40:26.856Z,57.64
2022-07-31T23:42:58.667Z,57.50
2022-07-31T23:45:31.446Z,57.43
2022-07-31T23:48:05.155Z,57.42
2022-07-31T23:50:37.965Z,57.51
2022-07-31T23:53:12.608Z,57.88
2022-07-31T23:55:45.409Z,57.75
2022-07-31T23:58:18.526Z,57.56
